Time;durP1;ratioP1;P1;durP2;ratioP2;P2;SDS_P1;SDS_P2;PMS_P1;PMS_P2;Temp;Humidity;BMP_temperature;BMP_pressure;BME280_temperature;BME280_humidity;BME280_pressure;Samples;Min_cycle;Max_cycle;Signal;HPM_P1;HPM_P2
2023/08/14 00:01:36;;;;;;;2.4;1.8;;;;;;;19.13;100;940.848;;;;
2023/08/14 00:04:06;;;;;;;1.7;1.5;;;;;;;18.93;100;940.7852;;;;
2023/08/14 00:06:31;;;;;;;2;1.7;;;;;;;18.89;100;940.8451;;;;
2023/08/14 00:08:59;;;;;;;2.5;1.6;;;;;;;18.95;100;940.8156;;;;
2023/08/14 00:12:12;;;;;;;2.7;2.5;;;;;;;19.07;100;940.8144;;;;
2023/08/14 00:14:38;;;;;;;2.7;2.5;;;;;;;19.1;100;940.755;;;;
2023/08/14 00:17:03;;;;;;;1.9;1.6;;;;;;;19.07;100;940.7508;;;;
2023/08/14 00:19:30;;;;;;;3.5;2.1;;;;;;;19.17;100;940.6881;;;;
2023/08/14 00:21:55;;;;;;;2.1;1.6;;;;;;;19.13;100;940.6752;;;;
2023/08/14 00:24:43;;;;;;;1.9;1.4;;;;;;;19.2;100;940.6408;;;;
2023/08/14 00:27:09;;;;;;;2.8;1.4;;;;;;;19.34;100;940.5655;;;;
2023/08/14 00:29:34;;;;;;;1.7;1.4;;;;;;;19.32;100;940.6006;;;;
2023/08/14 00:32:01;;;;;;;1.8;1.7;;;;;;;19.18;100;940.5983;;;;
2023/08/14 00:34:26;;;;;;;1.5;1.4;;;;;;;19.06;100;940.5483;;;;
2023/08/14 00:36:53;;;;;;;3.8;1.7;;;;;;;19.06;100;940.4547;;;;
2023/08/14 00:39:18;;;;;;;2.1;1.8;;;;;;;18.98;100;940.4413;;;;
2023/08/14 00:41:44;;;;;;;1.8;1.4;;;;;;;18.95;100;940.4211;;;;
2023/08/14 00:44:09;;;;;;;2.5;1.6;;;;;;;19;100;940.4846;;;;
2023/08/14 00:46:37;;;;;;;1.8;1.6;;;;;;;19.06;100;940.3819;;;;
2023/08/14 00:49:02;;;;;;;2;1.6;;;;;;;18.99;100;940.387;;;;
2023/08/14 00:51:27;;;;;;;3;1.6;;;;;;;18.98;100;940.4486;;;;
2023/08/14 00:53:58;;;;;;;2.2;1.6;;;;;;;18.9;100;940.4034;;;;
2023/08/14 00:56:24;;;;;;;5.5;1.5;;;;;;;18.89;100;940.3786;;;;
2023/08/14 00:58:54;;;;;;;1.7;1.5;;;;;;;18.9;100;940.4017;;;;
2023/08/14 01:01:19;;;;;;;1.8;1.5;;;;;;;18.89;100;940.3616;;;;
2023/08/14 01:03:46;;;;;;;2.5;1.7;;;;;;;18.76;100;940.3597;;;;
2023/08/14 01:06:12;;;;;;;2.3;1.8;;;;;;;18.75;100;940.3373;;;;
2023/08/14 01:08:37;;;;;;;2.7;1.9;;;;;;;18.8;100;940.3033;;;;
2023/08/14 01:11:06;;;;;;;1.7;1.5;;;;;;;18.7;100;940.2785;;;;
2023/08/14 01:13:32;;;;;;;2.7;1.6;;;;;;;18.78;100;940.2626;;;;
2023/08/14 01:15:57;;;;;;;1.6;1.5;;;;;;;18.63;100;940.2291;;;;
2023/08/14 01:18:22;;;;;;;2.2;1.7;;;;;;;18.66;100;940.1864;;;;
2023/08/14 01:20:50;;;;;;;129.9;62.3;;;;;;;18.62;100;940.1047;;;;
2023/08/14 01:23:18;;;;;;;24.5;12.9;;;;;;;18.59;100;940.13;;;;
2023/08/14 01:25:45;;;;;;;6.9;3.7;;;;;;;18.57;100;940.0601;;;;
2023/08/14 01:28:10;;;;;;;2.1;1.8;;;;;;;18.42;100;940.0178;;;;
2023/08/14 01:30:35;;;;;;;3.5;2.6;;;;;;;18.31;100;939.9758;;;;
2023/08/14 01:33:01;;;;;;;2.1;1.9;;;;;;;18.19;100;940.0396;;;;
2023/08/14 01:35:30;;;;;;;3;2.1;;;;;;;18.2;100;940.038;;;;
2023/08/14 01:37:55;;;;;;;2.3;2.1;;;;;;;18.25;100;940.0399;;;;
2023/08/14 01:40:23;;;;;;;3.7;2;;;;;;;18.27;100;939.975;;;;
2023/08/14 01:42:48;;;;;;;2.1;1.9;;;;;;;18.12;100;939.986;;;;
2023/08/14 01:45:13;;;;;;;3.6;2;;;;;;;18.1;100;939.8809;;;;
2023/08/14 01:47:59;;;;;;;2.2;1.9;;;;;;;18.09;100;939.9391;;;;
2023/08/14 01:50:24;;;;;;;3.2;1.8;;;;;;;18.18;100;940.0012;;;;
2023/08/14 01:52:51;;;;;;;1.8;1.7;;;;;;;18.2;100;939.988;;;;
2023/08/14 01:55:16;;;;;;;2.4;1.7;;;;;;;18.25;100;939.8947;;;;
2023/08/14 01:57:43;;;;;;;2.8;1.7;;;;;;;18.17;100;939.8756;;;;
2023/08/14 02:00:09;;;;;;;2.1;1.7;;;;;;;18.23;100;939.887;;;;
2023/08/14 02:02:33;;;;;;;2.9;1.6;;;;;;;18.33;100;939.8078;;;;
2023/08/14 02:04:58;;;;;;;1.8;1.7;;;;;;;18.33;100;939.7989;;;;
2023/08/14 02:07:24;;;;;;;2.9;1.8;;;;;;;18.17;100;939.7651;;;;
2023/08/14 02:09:49;;;;;;;2.4;1.9;;;;;;;18.21;100;939.7056;;;;
2023/08/14 02:12:16;;;;;;;2.4;1.8;;;;;;;18.15;100;939.7372;;;;
2023/08/14 02:15:10;;;;;;;3.3;2;;;;;;;18.07;100;939.7145;;;;
2023/08/14 02:17:39;;;;;;;4.3;2.2;;;;;;;17.94;100;939.6592;;;;
2023/08/14 02:20:05;;;;;;;2.6;1.9;;;;;;;17.91;100;939.6065;;;;
2023/08/14 02:22:29;;;;;;;1.8;1.7;;;;;;;18.05;100;939.6238;;;;
2023/08/14 02:24:54;;;;;;;4.2;2.2;;;;;;;18.13;100;939.5789;;;;
2023/08/14 02:27:20;;;;;;;2;1.8;;;;;;;18.06;100;939.6147;;;;
2023/08/14 02:29:50;;;;;;;1.8;1.7;;;;;;;17.99;100;939.6253;;;;
2023/08/14 02:32:15;;;;;;;2.6;2.1;;;;;;;18.02;100;939.6783;;;;
2023/08/14 02:34:40;;;;;;;2.9;2;;;;;;;17.92;100;939.6345;;;;
2023/08/14 02:37:05;;;;;;;2.2;2;;;;;;;17.97;100;939.5248;;;;
2023/08/14 02:39:32;;;;;;;2;1.8;;;;;;;18;100;939.5599;;;;
2023/08/14 02:41:57;;;;;;;2.3;2.1;;;;;;;18.13;100;939.6031;;;;
2023/08/14 02:44:22;;;;;;;2.2;2;;;;;;;18.02;100;939.5983;;;;
2023/08/14 02:46:48;;;;;;;2.1;1.9;;;;;;;17.91;100;939.5374;;;;
2023/08/14 02:49:13;;;;;;;2.4;2.2;;;;;;;17.89;100;939.5544;;;;
2023/08/14 02:51:38;;;;;;;2.2;2;;;;;;;17.94;100;939.5568;;;;
2023/08/14 02:54:05;;;;;;;3;2.7;;;;;;;17.91;100;939.5492;;;;
2023/08/14 02:56:30;;;;;;;2.6;2.2;;;;;;;17.99;100;939.5206;;;;
2023/08/14 02:58:58;;;;;;;3.2;2.4;;;;;;;18.11;100;939.4955;;;;
2023/08/14 03:01:24;;;;;;;2.4;2.2;;;;;;;18.23;100;939.5412;;;;
2023/08/14 03:03:51;;;;;;;4.6;2.5;;;;;;;18.2;100;939.489;;;;
2023/08/14 03:06:17;;;;;;;3.7;2.4;;;;;;;18.08;100;939.4612;;;;
2023/08/14 03:08:44;;;;;;;4.3;2.4;;;;;;;18.09;100;939.4603;;;;
2023/08/14 03:11:09;;;;;;;2.5;2.3;;;;;;;18.22;100;939.4435;;;;
2023/08/14 03:13:36;;;;;;;3.4;2.4;;;;;;;18.25;100;939.4642;;;;
2023/08/14 03:16:01;;;;;;;4.1;2.5;;;;;;;18.27;100;939.4341;;;;
2023/08/14 03:18:27;;;;;;;2.7;2.5;;;;;;;18.2;100;939.481;;;;
2023/08/14 03:20:52;;;;;;;4.6;2.7;;;;;;;18.14;100;939.4667;;;;
2023/08/14 03:23:19;;;;;;;2.6;2.2;;;;;;;18.09;100;939.4764;;;;
2023/08/14 03:25:45;;;;;;;4.8;2.5;;;;;;;18.14;100;939.5262;;;;
2023/08/14 03:28:30;;;;;;;2.7;2.2;;;;;;;18.09;100;939.4451;;;;
2023/08/14 03:30:56;;;;;;;2.8;2.5;;;;;;;18.08;100;939.52;;;;
2023/08/14 03:33:21;;;;;;;2.9;2.7;;;;;;;18;100;939.5034;;;;
2023/08/14 03:36:32;;;;;;;3.8;2.9;;;;;;;18.04;100;939.4708;;;;
2023/08/14 03:39:02;;;;;;;6.8;3.5;;;;;;;18.1;100;939.5947;;;;
2023/08/14 03:41:27;;;;;;;3.3;3;;;;;;;18.15;100;939.5569;;;;
2023/08/14 03:43:53;;;;;;;2.9;2.6;;;;;;;18.23;100;939.6008;;;;
2023/08/14 03:46:18;;;;;;;3.5;2.4;;;;;;;18.2;100;939.6381;;;;
2023/08/14 03:48:47;;;;;;;2.7;2.3;;;;;;;18.2;100;939.6566;;;;
2023/08/14 03:51:12;;;;;;;4.9;2.8;;;;;;;18.17;100;939.7095;;;;
2023/08/14 03:53:37;;;;;;;2.8;2.4;;;;;;;18.09;100;939.6521;;;;
2023/08/14 03:56:40;;;;;;;3.2;2.9;;;;;;;18.13;100;939.7377;;;;
2023/08/14 03:59:08;;;;;;;2.7;2.5;;;;;;;18.12;100;939.7419;;;;
2023/08/14 04:02:40;;;;;;;3.3;2.4;;;;;;;18.12;100;939.6839;;;;
2023/08/14 04:05:05;;;;;;;3.4;2.8;;;;;;;18.17;100;939.6903;;;;
2023/08/14 04:07:30;;;;;;;3.8;2.9;;;;;;;18.14;100;939.7084;;;;
2023/08/14 04:09:55;;;;;;;2.7;2.5;;;;;;;18.12;100;939.691;;;;
2023/08/14 04:12:20;;;;;;;5.2;2.6;;;;;;;18.17;100;939.6903;;;;
2023/08/14 04:14:45;;;;;;;2.9;2.6;;;;;;;17.97;100;939.7216;;;;
2023/08/14 04:17:10;;;;;;;3;2.7;;;;;;;17.91;100;939.6292;;;;
2023/08/14 04:19:35;;;;;;;4.1;2.9;;;;;;;17.97;100;939.6765;;;;
2023/08/14 04:22:02;;;;;;;6.3;4.7;;;;;;;17.89;100;939.7381;;;;
2023/08/14 04:24:27;;;;;;;3.1;2.8;;;;;;;17.82;100;939.7512;;;;
2023/08/14 04:26:56;;;;;;;4.3;3.8;;;;;;;17.85;100;939.8033;;;;
2023/08/14 04:29:21;;;;;;;6.1;4.2;;;;;;;17.81;100;939.7747;;;;
2023/08/14 04:31:48;;;;;;;8.2;4.3;;;;;;;17.87;100;939.7328;;;;
2023/08/14 04:34:13;;;;;;;3.3;3;;;;;;;17.86;100;939.6646;;;;
2023/08/14 04:36:39;;;;;;;4.8;3;;;;;;;17.85;100;939.697;;;;
2023/08/14 04:39:05;;;;;;;3.1;2.8;;;;;;;17.89;100;939.6964;;;;
2023/08/14 04:41:31;;;;;;;4;3.6;;;;;;;17.85;100;939.6631;;;;
2023/08/14 04:43:56;;;;;;;5.1;3.2;;;;;;;17.79;100;939.7106;;;;
2023/08/14 04:46:23;;;;;;;2.7;2.5;;;;;;;17.96;100;939.6726;;;;
2023/08/14 04:48:48;;;;;;;3.4;2.8;;;;;;;17.94;100;939.6722;;;;
2023/08/14 04:51:15;;;;;;;3.5;3.2;;;;;;;17.82;100;939.7068;;;;
2023/08/14 04:53:40;;;;;;;3;2.7;;;;;;;17.79;100;939.6887;;;;
2023/08/14 04:56:07;;;;;;;3.2;2.9;;;;;;;17.83;100;939.6289;;;;
2023/08/14 04:58:33;;;;;;;3.2;2.9;;;;;;;17.88;100;939.6868;;;;
2023/08/14 05:03:57;;;;;;;4.2;2.9;;;;;;;18;100;939.6163;;;;
2023/08/14 05:09:35;;;;;;;3.1;2.9;;;;;;;18.08;100;939.6184;;;;
2023/08/14 05:12:36;;;;;;;3.4;2.8;;;;;;;18.02;100;939.6404;;;;
2023/08/14 05:15:07;;;;;;;3.5;2.7;;;;;;;18.09;100;939.6311;;;;
2023/08/14 05:17:33;;;;;;;3;2.6;;;;;;;18.16;100;939.5848;;;;
2023/08/14 05:20:01;;;;;;;4.2;2.8;;;;;;;18.19;100;939.5892;;;;
2023/08/14 05:22:26;;;;;;;3.3;2.6;;;;;;;18.16;100;939.6323;;;;
2023/08/14 05:24:55;;;;;;;2.8;2.5;;;;;;;18.19;100;939.5859;;;;
2023/08/14 05:27:20;;;;;;;4.7;2.7;;;;;;;18.3;100;939.5471;;;;
2023/08/14 05:29:46;;;;;;;3.2;2.3;;;;;;;18.48;100;939.5884;;;;
2023/08/14 05:32:11;;;;;;;3;2.6;;;;;;;18.6;100;939.6111;;;;
2023/08/14 05:34:38;;;;;;;4.5;4.1;;;;;;;18.81;100;939.5568;;;;
2023/08/14 05:37:03;;;;;;;2.9;2.3;;;;;;;19.44;100;939.6769;;;;
2023/08/14 05:39:30;;;;;;;2.8;2.3;;;;;;;20.32;96.60742;939.5972;;;;
2023/08/14 05:41:55;;;;;;;1.5;1.4;;;;;;;21.12;90.70996;939.5873;;;;
2023/08/14 05:44:21;;;;;;;1.6;1.5;;;;;;;21.92;86.36328;939.5976;;;;
2023/08/14 05:46:46;;;;;;;2.1;1.6;;;;;;;22.41;83.47852;939.552;;;;
2023/08/14 05:49:13;;;;;;;2.7;1.8;;;;;;;22.83;84.1084;939.5574;;;;
2023/08/14 05:51:38;;;;;;;2;1.6;;;;;;;23.32;78.3125;939.5851;;;;
2023/08/14 05:54:06;;;;;;;2;1.7;;;;;;;23.85;72.88672;939.5416;;;;
2023/08/14 05:56:31;;;;;;;1.9;1.7;;;;;;;24.53;71.38086;939.5092;;;;
2023/08/14 05:58:57;;;;;;;5.5;2.1;;;;;;;25.31;70.11328;939.4858;;;;
2023/08/14 06:01:21;;;;;;;3.6;1.9;;;;;;;25.67;67.54688;939.4788;;;;
2023/08/14 06:03:47;;;;;;;2.5;1.6;;;;;;;25.73;68.33594;939.4606;;;;
2023/08/14 06:06:12;;;;;;;2.6;2.4;;;;;;;25.4;67.88477;939.378;;;;
2023/08/14 06:08:38;;;;;;;1.9;1.6;;;;;;;25.48;68.06152;939.4392;;;;
2023/08/14 06:11:03;;;;;;;1.9;1.8;;;;;;;25.31;68.61426;939.5291;;;;
2023/08/14 06:13:28;;;;;;;3.6;1.8;;;;;;;25.12;68.35059;939.4817;;;;
2023/08/14 06:15:58;;;;;;;2.5;2.3;;;;;;;25.18;68.27539;939.4988;;;;
2023/08/14 06:18:28;;;;;;;1.9;1.8;;;;;;;25.04;67.66504;939.5287;;;;
2023/08/14 06:20:53;;;;;;;2.3;1.7;;;;;;;25.92;65.94141;939.4525;;;;
2023/08/14 06:23:19;;;;;;;2.4;1.7;;;;;;;25.74;69.15332;939.4183;;;;
2023/08/14 06:25:44;;;;;;;1.7;1.4;;;;;;;25.57;67.09473;939.4014;;;;
2023/08/14 06:28:11;;;;;;;1.7;1.6;;;;;;;24.24;70.2998;939.4058;;;;
2023/08/14 06:34:23;;;;;;;2;1.6;;;;;;;26.35;65.51953;939.3861;;;;
2023/08/14 06:36:55;;;;;;;2.9;1.5;;;;;;;26.82;61.13379;939.3633;;;;
2023/08/14 06:43:02;;;;;;;1.9;1.5;;;;;;;28.77;55.81836;939.4141;;;;
2023/08/14 06:45:29;;;;;;;2.1;1.6;;;;;;;28.53;57.00195;939.3762;;;;
2023/08/14 06:48:07;;;;;;;2.4;1.5;;;;;;;28.91;54.84766;939.4246;;;;
2023/08/14 06:50:45;;;;;;;2.3;1.7;;;;;;;27.15;61.13086;939.4386;;;;
2023/08/14 06:53:12;;;;;;;1.7;1.5;;;;;;;29.16;54.62793;939.3887;;;;
2023/08/14 06:55:37;;;;;;;2.5;1.5;;;;;;;29.46;54.93848;939.3002;;;;
2023/08/14 06:58:07;;;;;;;1.7;1.6;;;;;;;30.31;51.3877;939.3244;;;;
2023/08/14 07:00:32;;;;;;;1.8;1.7;;;;;;;29.59;52.46289;939.2584;;;;
2023/08/14 07:02:58;;;;;;;1.4;1.3;;;;;;;30.16;51.47949;939.2589;;;;
2023/08/14 07:06:06;;;;;;;1.3;1.2;;;;;;;29.8;51.59277;939.2491;;;;
2023/08/14 07:08:33;;;;;;;2.3;1.4;;;;;;;30.16;51.52637;939.2746;;;;
2023/08/14 07:13:23;;;;;;;1.6;1.5;;;;;;;30.06;51.93359;939.2086;;;;
2023/08/14 07:19:35;;;;;;;1.6;1.5;;;;;;;33.56;44.32617;939.1615;;;;
2023/08/14 07:22:00;;;;;;;2.1;1.4;;;;;;;33.52;42.9502;939.1667;;;;
2023/08/14 07:24:26;;;;;;;3.4;1.7;;;;;;;31.82;44.93457;939.149;;;;
2023/08/14 07:26:53;;;;;;;1.9;1.6;;;;;;;32.76;44.70508;939.1605;;;;
2023/08/14 07:29:18;;;;;;;1.7;1.5;;;;;;;32.71;44.91504;939.0994;;;;
2023/08/14 07:31:43;;;;;;;1.6;1.5;;;;;;;33.29;43.75879;939.1194;;;;
2023/08/14 07:34:08;;;;;;;1.8;1.7;;;;;;;34.07;41.64258;939.1169;;;;
2023/08/14 07:36:35;;;;;;;2.2;2;;;;;;;33.03;43.79395;939.1217;;;;
2023/08/14 07:39:00;;;;;;;3.8;2.6;;;;;;;33.78;43.80664;939.0964;;;;
2023/08/14 07:41:27;;;;;;;2.3;1.7;;;;;;;33.87;42.44238;939.0289;;;;
2023/08/14 07:43:52;;;;;;;1.6;1.5;;;;;;;34.24;42.82715;938.9874;;;;
2023/08/14 07:46:20;;;;;;;1.4;1.3;;;;;;;34.01;41.61328;938.9942;;;;
2023/08/14 07:48:45;;;;;;;1.6;1.5;;;;;;;33.85;42.4043;938.9182;;;;
2023/08/14 07:51:13;;;;;;;1.8;1.5;;;;;;;33.69;44.41016;938.9633;;;;
2023/08/14 07:53:38;;;;;;;1.7;1.6;;;;;;;34.73;42.71582;938.9575;;;;
2023/08/14 07:56:04;;;;;;;2;1.8;;;;;;;35;39.64063;938.9594;;;;
2023/08/14 07:58:29;;;;;;;1.7;1.6;;;;;;;35.01;39.58105;938.9366;;;;
2023/08/14 08:00:56;;;;;;;2.3;2;;;;;;;33.89;42.72168;938.8752;;;;
2023/08/14 08:03:57;;;;;;;2.3;1.6;;;;;;;33.21;43.37793;938.8167;;;;
2023/08/14 08:06:26;;;;;;;1.9;1.7;;;;;;;32.43;45.65527;938.8297;;;;
2023/08/14 08:08:51;;;;;;;1.7;1.6;;;;;;;33.1;46.25098;938.7902;;;;
2023/08/14 08:11:19;;;;;;;2.8;1.7;;;;;;;32.27;44.94238;938.8181;;;;
2023/08/14 08:13:44;;;;;;;1.6;1.5;;;;;;;31.86;45.50195;938.788;;;;
2023/08/14 08:16:10;;;;;;;1.9;1.8;;;;;;;32.99;45.55566;938.7195;;;;
2023/08/14 08:18:35;;;;;;;2.3;1.7;;;;;;;33.78;44.08203;938.7944;;;;
2023/08/14 08:21:01;;;;;;;3.7;1.8;;;;;;;33.07;42.99316;938.7855;;;;
2023/08/14 08:23:26;;;;;;;2;1.8;;;;;;;32.26;45.37402;938.7714;;;;
2023/08/14 08:25:53;;;;;;;2.3;1.9;;;;;;;33.39;41.96484;938.7197;;;;
2023/08/14 08:28:18;;;;;;;2.5;1.9;;;;;;;34.7;40.78418;938.736;;;;
2023/08/14 08:30:48;;;;;;;2.1;1.9;;;;;;;34.83;40.15625;938.7089;;;;
2023/08/14 08:33:16;;;;;;;1.9;1.8;;;;;;;35.83;38.46777;938.7045;;;;
2023/08/14 08:35:41;;;;;;;2.1;1.9;;;;;;;34.33;41.12402;938.7149;;;;
2023/08/14 08:38:14;;;;;;;2.4;2.2;;;;;;;33.99;40.37207;938.6481;;;;
2023/08/14 08:40:33;;;;;;;2.8;2.2;;;;;;;34.46;43.40039;938.6559;;;;
2023/08/14 08:42:58;;;;;;;2.3;2.1;;;;;;;35;40.31641;938.6587;;;;
2023/08/14 08:45:28;;;;;;;2.4;2.2;;;;;;;34.87;40.30566;938.5455;;;;
2023/08/14 08:48:22;;;;;;;2.4;2.2;;;;;;;34.37;41.62207;938.5134;;;;
2023/08/14 08:50:47;;;;;;;2.5;2.3;;;;;;;33.92;42.32715;938.4866;;;;
2023/08/14 08:53:12;;;;;;;2.3;2.1;;;;;;;34.06;42.79785;938.5;;;;
2023/08/14 08:55:38;;;;;;;2.4;2.2;;;;;;;33.32;42.30664;938.5041;;;;
2023/08/14 08:58:04;;;;;;;2.3;2.2;;;;;;;33.61;44.72754;938.4768;;;;
2023/08/14 09:00:29;;;;;;;2.1;1.9;;;;;;;33.43;42.93066;938.4554;;;;
2023/08/14 09:02:57;;;;;;;2.7;2;;;;;;;32.98;43.87207;938.383;;;;
2023/08/14 09:05:22;;;;;;;2.4;2.2;;;;;;;33.24;44.31934;938.3456;;;;
2023/08/14 09:07:53;;;;;;;2.7;2.5;;;;;;;33.85;44.65527;938.358;;;;
2023/08/14 09:10:22;;;;;;;2.3;2.1;;;;;;;33.67;43.69922;938.3328;;;;
2023/08/14 09:12:47;;;;;;;2.6;2.4;;;;;;;33.45;47.50098;938.295;;;;
2023/08/14 09:15:18;;;;;;;2.1;2;;;;;;;33.26;45.0293;938.3214;;;;
2023/08/14 09:17:46;;;;;;;2.3;2.1;;;;;;;32.81;45.16504;938.3116;;;;
2023/08/14 09:20:14;;;;;;;2.4;2.2;;;;;;;32.54;42.46289;938.2328;;;;
2023/08/14 09:22:38;;;;;;;2.6;2.4;;;;;;;32.37;42.61523;938.2173;;;;
2023/08/14 09:25:04;;;;;;;2.6;2.4;;;;;;;32.21;41.59277;938.2015;;;;
2023/08/14 09:27:31;;;;;;;2.6;2.4;;;;;;;31.84;44.00195;938.2425;;;;
2023/08/14 09:29:56;;;;;;;2.4;2.2;;;;;;;31.55;44.1416;938.2206;;;;
2023/08/14 09:32:26;;;;;;;2.5;2.3;;;;;;;31.49;43.75391;938.1503;;;;
2023/08/14 09:34:54;;;;;;;3;2.1;;;;;;;30.96;44.25195;938.0944;;;;
2023/08/14 09:37:20;;;;;;;2.6;2.4;;;;;;;31.07;45.17188;938.1006;;;;
2023/08/14 09:39:50;;;;;;;3.8;2.2;;;;;;;31.16;46.77148;938.1014;;;;
2023/08/14 09:42:16;;;;;;;2.8;2.5;;;;;;;31.54;46.75195;938.0485;;;;
2023/08/14 09:44:41;;;;;;;3.1;2.7;;;;;;;31.59;46.20703;938.0701;;;;
2023/08/14 09:47:07;;;;;;;2.2;2;;;;;;;31.66;42.84668;938.0188;;;;
2023/08/14 09:49:32;;;;;;;2.6;2;;;;;;;31.83;44.09766;937.9871;;;;
2023/08/14 09:52:01;;;;;;;2;1.9;;;;;;;32.01;44.23438;937.9117;;;;
2023/08/14 09:54:26;;;;;;;3.2;2.3;;;;;;;32.19;44.37207;937.9579;;;;
2023/08/14 09:56:54;;;;;;;2.4;2.2;;;;;;;32.2;43.89355;937.9153;;;;
2023/08/14 09:59:19;;;;;;;3.1;2.6;;;;;;;32.11;43.89648;937.858;;;;
2023/08/14 10:01:50;;;;;;;3.4;2.2;;;;;;;32.58;43.55859;937.8141;;;;
2023/08/14 10:04:21;;;;;;;2.8;2.5;;;;;;;33.14;43.86426;937.7305;;;;
2023/08/14 10:06:46;;;;;;;3.6;2.1;;;;;;;33.2;41.14258;937.7372;;;;
2023/08/14 10:09:11;;;;;;;2.5;2;;;;;;;33.02;44.84961;937.7118;;;;
2023/08/14 10:11:38;;;;;;;3.4;2.1;;;;;;;33.34;43.27148;937.6322;;;;
2023/08/14 10:14:04;;;;;;;2.5;1.9;;;;;;;33.31;38.83301;937.7076;;;;
2023/08/14 10:16:31;;;;;;;2.1;1.9;;;;;;;33.25;37.49414;937.6717;;;;
2023/08/14 10:18:56;;;;;;;2.3;1.9;;;;;;;33.33;37.93359;937.665;;;;
2023/08/14 10:21:22;;;;;;;2.2;2;;;;;;;33.8;39.78906;937.6968;;;;
2023/08/14 10:24:02;;;;;;;2.2;2;;;;;;;33.54;38.45508;937.6852;;;;
2023/08/14 10:26:24;;;;;;;2.2;2.1;;;;;;;33.67;37.73242;937.6152;;;;
2023/08/14 10:28:52;;;;;;;2.3;1.9;;;;;;;34.01;42.16699;937.6421;;;;
2023/08/14 10:31:17;;;;;;;2.4;2.1;;;;;;;33.94;34.77051;937.6163;;;;
2023/08/14 10:33:42;;;;;;;2.4;2.2;;;;;;;34.01;38.38672;937.5919;;;;
2023/08/14 10:36:07;;;;;;;4.4;2.9;;;;;;;34.64;39.88672;937.6089;;;;
2023/08/14 10:38:36;;;;;;;2.4;2.2;;;;;;;34.62;38.42578;937.6082;;;;
2023/08/14 10:41:01;;;;;;;2;1.8;;;;;;;34.63;35.84766;937.5566;;;;
2023/08/14 10:43:27;;;;;;;2.2;2;;;;;;;35.31;34.25977;937.5558;;;;
2023/08/14 10:45:52;;;;;;;1.9;1.7;;;;;;;36.09;31.5;937.4988;;;;
2023/08/14 10:48:19;;;;;;;2;1.9;;;;;;;37.31;35.1123;937.473;;;;
2023/08/14 10:50:42;;;;;;;1.9;1.7;;;;;;;38.03;30.99023;937.4711;;;;
2023/08/14 10:53:08;;;;;;;2;1.8;;;;;;;37.58;27.1748;937.4752;;;;
2023/08/14 10:55:33;;;;;;;2.7;1.9;;;;;;;38.6;27.40527;937.4905;;;;
2023/08/14 11:01:27;;;;;;;3.3;2.2;;;;;;;39.51;31.45508;937.5027;;;;
2023/08/14 11:03:56;;;;;;;2.5;2.2;;;;;;;39.12;35.76172;937.5122;;;;
2023/08/14 11:06:21;;;;;;;2.8;2;;;;;;;38.9;36.99902;937.4805;;;;
2023/08/14 11:08:50;;;;;;;2.6;2.4;;;;;;;39.16;34.16992;937.473;;;;
2023/08/14 11:11:14;;;;;;;2.7;2.5;;;;;;;39.18;33.5752;937.4392;;;;
2023/08/14 11:13:39;;;;;;;3;2.5;;;;;;;38.89;35.12305;937.4222;;;;
2023/08/14 11:16:07;;;;;;;2.5;2.3;;;;;;;38.55;36.62988;937.3953;;;;
2023/08/14 11:18:47;;;;;;;3;2.7;;;;;;;39.12;34.62988;937.4461;;;;
2023/08/14 11:21:17;;;;;;;2.7;2.4;;;;;;;38.48;35.95508;937.4009;;;;
2023/08/14 11:23:42;;;;;;;3.1;2.3;;;;;;;38.03;38.85938;937.358;;;;
2023/08/14 11:26:10;;;;;;;3;2.7;;;;;;;36.3;39.11133;937.3365;;;;
2023/08/14 11:28:35;;;;;;;2.8;2.6;;;;;;;35.67;40.76172;937.3553;;;;
2023/08/14 11:31:04;;;;;;;2.5;2.3;;;;;;;35.76;43.41602;937.4111;;;;
2023/08/14 11:33:29;;;;;;;2.9;2.6;;;;;;;34.62;43.95898;937.4156;;;;
2023/08/14 11:35:56;;;;;;;2.6;2.4;;;;;;;34.04;45.46777;937.3778;;;;
2023/08/14 11:38:21;;;;;;;2.6;2.4;;;;;;;33.72;44.46094;937.4144;;;;
2023/08/14 11:40:51;;;;;;;2.9;2.6;;;;;;;33.66;45.22559;937.4029;;;;
2023/08/14 11:43:27;;;;;;;2.7;2.5;;;;;;;33.61;46.1709;937.4233;;;;
2023/08/14 11:45:54;;;;;;;3.1;2.8;;;;;;;33.3;46.94531;937.4007;;;;
2023/08/14 11:48:19;;;;;;;2.9;2.4;;;;;;;33.39;45.82422;937.4233;;;;
2023/08/14 11:50:48;;;;;;;2.3;2.1;;;;;;;33.61;48.21484;937.3864;;;;
2023/08/14 11:53:13;;;;;;;2.5;2.3;;;;;;;34.16;46.59961;937.3837;;;;
2023/08/14 11:55:40;;;;;;;3.6;2.5;;;;;;;34.79;44.27637;937.3867;;;;
2023/08/14 11:58:06;;;;;;;2.6;2.4;;;;;;;35.11;44.47656;937.3771;;;;
2023/08/14 12:00:36;;;;;;;2.5;2.3;;;;;;;34.66;43.90137;937.3412;;;;
2023/08/14 12:03:02;;;;;;;5.6;2.3;;;;;;;34.05;44.99902;937.2941;;;;
2023/08/14 12:05:27;;;;;;;2.2;2.1;;;;;;;33.26;47.85449;937.2665;;;;
2023/08/14 12:07:54;;;;;;;2.9;2.7;;;;;;;33.99;47.26855;937.2897;;;;
2023/08/14 12:10:19;;;;;;;3;2.3;;;;;;;35.56;43.97754;937.3144;;;;
2023/08/14 12:12:45;;;;;;;2.4;2.2;;;;;;;36.39;41.46777;937.3019;;;;
2023/08/14 12:15:11;;;;;;;2.4;2.2;;;;;;;36.85;39.65527;937.2719;;;;
2023/08/14 12:17:37;;;;;;;2.4;2.1;;;;;;;38.27;37.71289;937.2693;;;;
2023/08/14 12:20:05;;;;;;;3.5;2.3;;;;;;;38.5;39.70117;937.2791;;;;
2023/08/14 12:22:27;;;;;;;2.5;2.2;;;;;;;38.52;37.35742;937.2165;;;;
2023/08/14 12:24:52;;;;;;;2.2;2.1;;;;;;;37.97;38.39355;937.2394;;;;
2023/08/14 12:27:18;;;;;;;2.2;2;;;;;;;37.4;39.35156;937.2363;;;;
2023/08/14 12:29:43;;;;;;;2.1;2;;;;;;;37.52;39.45898;937.2169;;;;
2023/08/14 12:32:10;;;;;;;2.5;2.1;;;;;;;36.61;41.82617;937.1725;;;;
2023/08/14 12:34:36;;;;;;;2.6;2.3;;;;;;;36.22;43.29102;937.198;;;;
2023/08/14 12:37:02;;;;;;;2.1;2;;;;;;;35.65;42.66895;937.1953;;;;
2023/08/14 12:39:27;;;;;;;3;2.3;;;;;;;35.6;44.35547;937.1216;;;;
2023/08/14 12:41:53;;;;;;;2.3;2.2;;;;;;;34.8;48.47461;937.1138;;;;
2023/08/14 12:44:18;;;;;;;3.4;2.5;;;;;;;34.22;47.32813;937.0502;;;;
2023/08/14 12:46:44;;;;;;;2.6;2.4;;;;;;;33.66;49.60352;937.044;;;;
2023/08/14 12:49:09;;;;;;;2.4;2.2;;;;;;;33.74;49.70898;937.0217;;;;
2023/08/14 12:51:41;;;;;;;2.5;2.3;;;;;;;33.77;48.05176;937.1028;;;;
2023/08/14 12:54:08;;;;;;;2.5;2.3;;;;;;;33.62;48.44434;937.1252;;;;
2023/08/14 12:56:33;;;;;;;2.6;2.4;;;;;;;33.79;47.87305;937.0619;;;;
2023/08/14 12:59:02;;;;;;;3.4;2.4;;;;;;;33.49;51.99023;936.9936;;;;
2023/08/14 13:01:31;;;;;;;2.7;2.4;;;;;;;33.17;51.00488;937.0095;;;;
2023/08/14 13:03:56;;;;;;;3.9;2.5;;;;;;;33.32;49.75879;936.9768;;;;
2023/08/14 13:06:21;;;;;;;2.5;2.3;;;;;;;33.42;50.99609;937.0002;;;;
2023/08/14 13:08:46;;;;;;;2.6;2.4;;;;;;;33.45;50.91602;937.0002;;;;
2023/08/14 13:11:18;;;;;;;3.8;2.5;;;;;;;33.8;47.85059;937.0276;;;;
2023/08/14 13:13:41;;;;;;;3.8;2.4;;;;;;;33.54;50.4209;937.0511;;;;
2023/08/14 13:16:08;;;;;;;2.5;2.3;;;;;;;33.01;50.89063;937.0108;;;;
2023/08/14 13:18:32;;;;;;;2.8;2.6;;;;;;;32.76;50.10645;937.0385;;;;
2023/08/14 13:20:58;;;;;;;2.3;2.2;;;;;;;32.34;52.97461;937.0303;;;;
2023/08/14 13:23:23;;;;;;;2.8;2.2;;;;;;;32.21;52.21582;937.0178;;;;
2023/08/14 13:25:50;;;;;;;4.1;3;;;;;;;32.09;54.01172;937.0542;;;;
2023/08/14 13:28:15;;;;;;;2.5;2.3;;;;;;;31.83;53.18945;937.0295;;;;
2023/08/14 13:30:44;;;;;;;2.7;2.5;;;;;;;31.21;54.81641;937.0892;;;;
2023/08/14 13:33:09;;;;;;;2.6;2.4;;;;;;;30.87;56.18555;937.0107;;;;
2023/08/14 13:35:34;;;;;;;3.2;2.6;;;;;;;30.88;56.18848;937.0507;;;;
2023/08/14 13:38:02;;;;;;;2.5;2.3;;;;;;;30.92;55.08105;937.0405;;;;
2023/08/14 13:40:26;;;;;;;2.6;2.3;;;;;;;30.91;53.93164;937.0736;;;;
2023/08/14 13:42:52;;;;;;;2.5;2.3;;;;;;;30.93;54.60352;937.1017;;;;
2023/08/14 13:46:29;;;;;;;2.7;2.5;;;;;;;30.88;54.72949;937.1181;;;;
2023/08/14 13:48:56;;;;;;;2.7;2.4;;;;;;;31.02;55.90527;937.1741;;;;
2023/08/14 13:51:21;;;;;;;4.5;2.4;;;;;;;30.99;54.89746;937.1789;;;;
2023/08/14 13:53:49;;;;;;;2.4;2.2;;;;;;;30.92;55.42676;937.1978;;;;
2023/08/14 13:56:15;;;;;;;2.6;2.4;;;;;;;30.88;56.31836;937.1257;;;;
2023/08/14 13:58:39;;;;;;;2.7;2.5;;;;;;;30.91;56.14258;937.1683;;;;
2023/08/14 14:01:05;;;;;;;3.9;2.3;;;;;;;31.05;57.03223;937.1939;;;;
2023/08/14 14:03:30;;;;;;;3.8;2.5;;;;;;;31.37;57.69531;937.2186;;;;
2023/08/14 14:05:58;;;;;;;2.7;2.4;;;;;;;31.64;54.97656;937.1471;;;;
2023/08/14 14:08:23;;;;;;;2.8;2.5;;;;;;;31.96;55.29004;937.1909;;;;
2023/08/14 14:10:50;;;;;;;2.3;2.2;;;;;;;32.07;54.76563;937.2637;;;;
2023/08/14 14:13:17;;;;;;;2.6;2.4;;;;;;;32.06;54.02051;937.2527;;;;
2023/08/14 14:15:42;;;;;;;2.7;2.5;;;;;;;31.64;55.03711;937.2592;;;;
2023/08/14 14:18:10;;;;;;;3.1;2.7;;;;;;;31.44;56.08887;937.3342;;;;
2023/08/14 14:20:34;;;;;;;2.7;2.5;;;;;;;31.61;57.43945;937.2747;;;;
2023/08/14 14:22:59;;;;;;;3.3;2.5;;;;;;;31.12;58.35742;937.3309;;;;
2023/08/14 14:25:25;;;;;;;3;2.8;;;;;;;31.07;58.59082;937.2737;;;;
2023/08/14 14:27:52;;;;;;;3.1;2.6;;;;;;;31.15;59.95313;937.2744;;;;
2023/08/14 14:30:17;;;;;;;2.6;2.4;;;;;;;31.35;58.74609;937.2573;;;;
2023/08/14 14:32:45;;;;;;;2.6;2.4;;;;;;;31.34;56.84277;937.2745;;;;
2023/08/14 14:35:10;;;;;;;3.9;2.7;;;;;;;31.28;58.89355;937.2209;;;;
2023/08/14 14:37:39;;;;;;;4;2.6;;;;;;;31.31;57.41309;937.2609;;;;
2023/08/14 14:40:04;;;;;;;3.6;2.3;;;;;;;31.11;57.26855;937.1902;;;;
2023/08/14 14:42:30;;;;;;;3.4;2.5;;;;;;;30.92;58.0459;937.2017;;;;
2023/08/14 14:44:55;;;;;;;2.8;2.5;;;;;;;30.64;58.42773;937.1506;;;;
2023/08/14 14:47:23;;;;;;;2.8;2.6;;;;;;;30.5;59.03027;937.193;;;;
2023/08/14 14:49:48;;;;;;;2.9;2.7;;;;;;;30.35;61.6748;937.2089;;;;
2023/08/14 14:52:15;;;;;;;3.3;2.4;;;;;;;30.41;62.2793;937.231;;;;
2023/08/14 14:54:40;;;;;;;3.6;2.6;;;;;;;30.42;59.87988;937.2039;;;;
2023/08/14 14:57:06;;;;;;;2.7;2.5;;;;;;;30.41;59.86621;937.1428;;;;
2023/08/14 14:59:31;;;;;;;3;2.7;;;;;;;30.21;60.81836;937.1199;;;;
2023/08/14 15:01:57;;;;;;;3.1;2.8;;;;;;;30.35;59.74023;937.0934;;;;
2023/08/14 15:04:22;;;;;;;3.1;2.9;;;;;;;30.58;58.77832;937.1373;;;;
2023/08/14 15:06:48;;;;;;;3.4;3;;;;;;;30.61;57.33594;937.1121;;;;
2023/08/14 15:09:13;;;;;;;2.8;2.6;;;;;;;30.56;58.83496;937.0801;;;;
2023/08/14 15:15:27;;;;;;;3.5;2.9;;;;;;;30.65;60.41309;937.0375;;;;
2023/08/14 15:18:12;;;;;;;3.3;2.6;;;;;;;30.66;59.12305;937.0407;;;;